sensor_id;sensor_type;location;lat;lon;timestamp;P1;durP1;ratioP1;P2;durP2;ratioP2
68858;SDS011;55864;49.238;8.092;2023-02-28T00:01:02;5.72;;;1.63;;
68858;SDS011;55864;49.238;8.092;2023-02-28T00:03:04;5.53;;;2.07;;
68858;SDS011;55864;49.238;8.092;2023-02-28T00:05:06;5.13;;;1.90;;
68858;SDS011;55864;49.238;8.092;2023-02-28T00:07:08;6.65;;;1.70;;
68858;SDS011;55864;49.238;8.092;2023-02-28T00:09:09;4.83;;;1.70;;
68858;SDS011;55864;49.238;8.092;2023-02-28T00:11:10;4.53;;;1.80;;
68858;SDS011;55864;49.238;8.092;2023-02-28T00:13:12;5.28;;;1.73;;
68858;SDS011;55864;49.238;8.092;2023-02-28T00:15:12;5.10;;;1.90;;
68858;SDS011;55864;49.238;8.092;2023-02-28T00:17:13;4.80;;;1.93;;
68858;SDS011;55864;49.238;8.092;2023-02-28T00:19:15;5.33;;;1.70;;
68858;SDS011;55864;49.238;8.092;2023-02-28T00:21:16;4.83;;;1.60;;
68858;SDS011;55864;49.238;8.092;2023-02-28T00:23:18;4.10;;;1.50;;
68858;SDS011;55864;49.238;8.092;2023-02-28T00:25:19;6.00;;;1.77;;
68858;SDS011;55864;49.238;8.092;2023-02-28T00:27:21;7.87;;;2.00;;
68858;SDS011;55864;49.238;8.092;2023-02-28T00:29:22;4.73;;;1.70;;
68858;SDS011;55864;49.238;8.092;2023-02-28T00:31:22;5.50;;;1.70;;
68858;SDS011;55864;49.238;8.092;2023-02-28T00:33:23;5.17;;;1.70;;
68858;SDS011;55864;49.238;8.092;2023-02-28T00:35:25;5.93;;;1.73;;
68858;SDS011;55864;49.238;8.092;2023-02-28T00:37:25;5.33;;;1.80;;
68858;SDS011;55864;49.238;8.092;2023-02-28T00:39:26;5.87;;;1.70;;
68858;SDS011;55864;49.238;8.092;2023-02-28T00:41:26;6.07;;;1.90;;
68858;SDS011;55864;49.238;8.092;2023-02-28T00:43:27;5.97;;;1.80;;
68858;SDS011;55864;49.238;8.092;2023-02-28T00:45:27;4.70;;;1.80;;
68858;SDS011;55864;49.238;8.092;2023-02-28T00:47:28;4.90;;;1.80;;
68858;SDS011;55864;49.238;8.092;2023-02-28T00:49:29;6.20;;;1.70;;
68858;SDS011;55864;49.238;8.092;2023-02-28T00:51:30;5.17;;;1.80;;
68858;SDS011;55864;49.238;8.092;2023-02-28T00:53:31;4.97;;;1.87;;
68858;SDS011;55864;49.238;8.092;2023-02-28T00:55:32;5.30;;;1.77;;
68858;SDS011;55864;49.238;8.092;2023-02-28T00:57:32;4.97;;;1.70;;
68858;SDS011;55864;49.238;8.092;2023-02-28T00:59:33;4.87;;;1.80;;
68858;SDS011;55864;49.238;8.092;2023-02-28T01:01:33;6.07;;;1.70;;
68858;SDS011;55864;49.238;8.092;2023-02-28T01:03:34;4.50;;;1.70;;
68858;SDS011;55864;49.238;8.092;2023-02-28T01:05:35;5.27;;;1.93;;
68858;SDS011;55864;49.238;8.092;2023-02-28T01:07:37;5.07;;;1.70;;
68858;SDS011;55864;49.238;8.092;2023-02-28T01:09:37;5.13;;;1.70;;
68858;SDS011;55864;49.238;8.092;2023-02-28T01:11:38;5.13;;;1.60;;
68858;SDS011;55864;49.238;8.092;2023-02-28T01:13:40;5.20;;;1.87;;
68858;SDS011;55864;49.238;8.092;2023-02-28T01:15:41;7.03;;;1.87;;
68858;SDS011;55864;49.238;8.092;2023-02-28T01:17:46;4.43;;;1.63;;
68858;SDS011;55864;49.238;8.092;2023-02-28T01:19:46;7.20;;;2.00;;
68858;SDS011;55864;49.238;8.092;2023-02-28T01:21:46;5.50;;;2.10;;
68858;SDS011;55864;49.238;8.092;2023-02-28T01:23:48;5.23;;;2.20;;
68858;SDS011;55864;49.238;8.092;2023-02-28T01:25:49;6.13;;;2.00;;
68858;SDS011;55864;49.238;8.092;2023-02-28T01:27:50;5.47;;;2.00;;
68858;SDS011;55864;49.238;8.092;2023-02-28T01:29:51;5.47;;;1.90;;
68858;SDS011;55864;49.238;8.092;2023-02-28T01:31:51;4.83;;;1.80;;
68858;SDS011;55864;49.238;8.092;2023-02-28T01:33:52;5.87;;;2.07;;
68858;SDS011;55864;49.238;8.092;2023-02-28T01:35:57;6.17;;;1.67;;
68858;SDS011;55864;49.238;8.092;2023-02-28T01:37:58;7.70;;;2.23;;
68858;SDS011;55864;49.238;8.092;2023-02-28T01:40:00;4.93;;;2.10;;
68858;SDS011;55864;49.238;8.092;2023-02-28T01:42:00;5.37;;;2.20;;
68858;SDS011;55864;49.238;8.092;2023-02-28T01:44:03;6.53;;;1.87;;
68858;SDS011;55864;49.238;8.092;2023-02-28T01:46:06;5.07;;;2.20;;
68858;SDS011;55864;49.238;8.092;2023-02-28T01:48:07;5.90;;;2.53;;
68858;SDS011;55864;49.238;8.092;2023-02-28T01:50:09;8.33;;;1.90;;
68858;SDS011;55864;49.238;8.092;2023-02-28T01:52:14;8.13;;;2.20;;
68858;SDS011;55864;49.238;8.092;2023-02-28T01:54:16;7.50;;;2.20;;
68858;SDS011;55864;49.238;8.092;2023-02-28T01:56:23;5.77;;;1.93;;
68858;SDS011;55864;49.238;8.092;2023-02-28T01:58:26;6.60;;;2.20;;
68858;SDS011;55864;49.238;8.092;2023-02-28T02:00:27;6.10;;;2.40;;
68858;SDS011;55864;49.238;8.092;2023-02-28T02:02:30;5.93;;;1.95;;
68858;SDS011;55864;49.238;8.092;2023-02-28T02:04:32;5.63;;;2.10;;
68858;SDS011;55864;49.238;8.092;2023-02-28T02:06:38;6.87;;;2.30;;
68858;SDS011;55864;49.238;8.092;2023-02-28T02:08:44;6.87;;;2.20;;
68858;SDS011;55864;49.238;8.092;2023-02-28T02:10:45;4.90;;;2.07;;
68858;SDS011;55864;49.238;8.092;2023-02-28T02:12:52;7.33;;;2.30;;
68858;SDS011;55864;49.238;8.092;2023-02-28T02:15:05;6.30;;;2.40;;
68858;SDS011;55864;49.238;8.092;2023-02-28T02:17:18;6.63;;;2.20;;
68858;SDS011;55864;49.238;8.092;2023-02-28T02:21:50;6.07;;;2.20;;
68858;SDS011;55864;49.238;8.092;2023-02-28T02:24:29;5.80;;;2.40;;
68858;SDS011;55864;49.238;8.092;2023-02-28T02:27:05;5.70;;;2.23;;
68858;SDS011;55864;49.238;8.092;2023-02-28T02:29:21;5.67;;;2.10;;
68858;SDS011;55864;49.238;8.092;2023-02-28T02:31:43;6.90;;;2.23;;
68858;SDS011;55864;49.238;8.092;2023-02-28T02:34:24;6.67;;;2.30;;
68858;SDS011;55864;49.238;8.092;2023-02-28T02:36:33;6.70;;;2.50;;
68858;SDS011;55864;49.238;8.092;2023-02-28T02:38:39;6.60;;;2.40;;
68858;SDS011;55864;49.238;8.092;2023-02-28T02:40:50;6.23;;;2.50;;
68858;SDS011;55864;49.238;8.092;2023-02-28T02:42:58;7.63;;;2.50;;
68858;SDS011;55864;49.238;8.092;2023-02-28T02:45:06;6.70;;;2.30;;
68858;SDS011;55864;49.238;8.092;2023-02-28T02:47:12;5.73;;;2.33;;
68858;SDS011;55864;49.238;8.092;2023-02-28T02:49:16;7.13;;;2.20;;
68858;SDS011;55864;49.238;8.092;2023-02-28T02:51:22;5.90;;;2.40;;
68858;SDS011;55864;49.238;8.092;2023-02-28T02:53:27;6.30;;;2.50;;
68858;SDS011;55864;49.238;8.092;2023-02-28T02:55:34;6.67;;;2.37;;
68858;SDS011;55864;49.238;8.092;2023-02-28T02:57:40;6.17;;;2.63;;
68858;SDS011;55864;49.238;8.092;2023-02-28T02:59:47;6.00;;;2.40;;
68858;SDS011;55864;49.238;8.092;2023-02-28T03:01:54;5.90;;;2.30;;
68858;SDS011;55864;49.238;8.092;2023-02-28T03:03:59;6.80;;;2.50;;
68858;SDS011;55864;49.238;8.092;2023-02-28T03:06:03;6.63;;;2.43;;
68858;SDS011;55864;49.238;8.092;2023-02-28T03:08:07;6.73;;;2.50;;
68858;SDS011;55864;49.238;8.092;2023-02-28T03:12:32;7.47;;;2.53;;
68858;SDS011;55864;49.238;8.092;2023-02-28T03:14:42;6.90;;;2.57;;
68858;SDS011;55864;49.238;8.092;2023-02-28T03:16:59;5.83;;;2.50;;
68858;SDS011;55864;49.238;8.092;2023-02-28T03:19:18;6.13;;;2.72;;
68858;SDS011;55864;49.238;8.092;2023-02-28T03:21:32;7.23;;;2.63;;
68858;SDS011;55864;49.238;8.092;2023-02-28T03:23:38;6.10;;;2.30;;
68858;SDS011;55864;49.238;8.092;2023-02-28T03:25:52;7.27;;;2.70;;
68858;SDS011;55864;49.238;8.092;2023-02-28T03:28:00;9.00;;;2.90;;
68858;SDS011;55864;49.238;8.092;2023-02-28T03:30:06;6.73;;;2.90;;
68858;SDS011;55864;49.238;8.092;2023-02-28T03:32:16;6.20;;;2.70;;
68858;SDS011;55864;49.238;8.092;2023-02-28T03:34:21;6.70;;;2.63;;
68858;SDS011;55864;49.238;8.092;2023-02-28T03:36:25;7.43;;;2.77;;
68858;SDS011;55864;49.238;8.092;2023-02-28T03:38:29;6.40;;;2.53;;
68858;SDS011;55864;49.238;8.092;2023-02-28T03:40:35;5.67;;;2.43;;
68858;SDS011;55864;49.238;8.092;2023-02-28T03:42:39;7.23;;;2.90;;
68858;SDS011;55864;49.238;8.092;2023-02-28T03:44:43;8.03;;;2.90;;
68858;SDS011;55864;49.238;8.092;2023-02-28T03:46:48;7.97;;;2.93;;
68858;SDS011;55864;49.238;8.092;2023-02-28T03:48:56;6.77;;;2.47;;
68858;SDS011;55864;49.238;8.092;2023-02-28T03:51:02;7.43;;;3.00;;
68858;SDS011;55864;49.238;8.092;2023-02-28T03:53:07;7.78;;;2.63;;
68858;SDS011;55864;49.238;8.092;2023-02-28T03:55:12;6.83;;;2.90;;
68858;SDS011;55864;49.238;8.092;2023-02-28T03:57:18;6.63;;;2.80;;
68858;SDS011;55864;49.238;8.092;2023-02-28T03:59:26;7.47;;;2.93;;
68858;SDS011;55864;49.238;8.092;2023-02-28T04:01:32;6.60;;;2.80;;
68858;SDS011;55864;49.238;8.092;2023-02-28T04:03:36;7.33;;;2.90;;
68858;SDS011;55864;49.238;8.092;2023-02-28T04:05:44;7.77;;;3.07;;
68858;SDS011;55864;49.238;8.092;2023-02-28T04:07:49;9.33;;;3.30;;
68858;SDS011;55864;49.238;8.092;2023-02-28T04:09:50;7.23;;;2.90;;
68858;SDS011;55864;49.238;8.092;2023-02-28T04:11:52;6.97;;;3.03;;
68858;SDS011;55864;49.238;8.092;2023-02-28T04:13:54;10.30;;;3.10;;
68858;SDS011;55864;49.238;8.092;2023-02-28T04:15:54;7.00;;;2.90;;
68858;SDS011;55864;49.238;8.092;2023-02-28T04:17:55;8.63;;;3.00;;
68858;SDS011;55864;49.238;8.092;2023-02-28T04:19:56;7.30;;;2.93;;
68858;SDS011;55864;49.238;8.092;2023-02-28T04:21:56;7.60;;;3.10;;
68858;SDS011;55864;49.238;8.092;2023-02-28T04:23:57;6.47;;;2.77;;
68858;SDS011;55864;49.238;8.092;2023-02-28T04:25:58;6.07;;;2.97;;
68858;SDS011;55864;49.238;8.092;2023-02-28T04:27:58;7.87;;;3.37;;
68858;SDS011;55864;49.238;8.092;2023-02-28T04:30:02;7.27;;;3.00;;
68858;SDS011;55864;49.238;8.092;2023-02-28T04:34:03;7.20;;;2.87;;
68858;SDS011;55864;49.238;8.092;2023-02-28T04:36:07;7.85;;;3.10;;
68858;SDS011;55864;49.238;8.092;2023-02-28T04:38:08;8.13;;;3.10;;
68858;SDS011;55864;49.238;8.092;2023-02-28T04:40:09;8.13;;;2.93;;
68858;SDS011;55864;49.238;8.092;2023-02-28T04:42:15;7.17;;;3.50;;
68858;SDS011;55864;49.238;8.092;2023-02-28T04:44:16;10.40;;;3.40;;
68858;SDS011;55864;49.238;8.092;2023-02-28T04:46:18;7.23;;;3.30;;
68858;SDS011;55864;49.238;8.092;2023-02-28T04:48:19;7.53;;;3.40;;
68858;SDS011;55864;49.238;8.092;2023-02-28T04:50:20;7.83;;;3.37;;
68858;SDS011;55864;49.238;8.092;2023-02-28T04:52:20;7.97;;;3.30;;
68858;SDS011;55864;49.238;8.092;2023-02-28T04:54:21;9.67;;;3.20;;
68858;SDS011;55864;49.238;8.092;2023-02-28T04:56:22;8.57;;;3.33;;
68858;SDS011;55864;49.238;8.092;2023-02-28T04:58:23;8.27;;;3.27;;
68858;SDS011;55864;49.238;8.092;2023-02-28T05:00:23;7.73;;;2.97;;
68858;SDS011;55864;49.238;8.092;2023-02-28T05:02:25;11.00;;;3.50;;
68858;SDS011;55864;49.238;8.092;2023-02-28T05:04:26;8.13;;;2.90;;
68858;SDS011;55864;49.238;8.092;2023-02-28T05:06:27;10.13;;;2.87;;
68858;SDS011;55864;49.238;8.092;2023-02-28T05:08:29;6.93;;;2.88;;
68858;SDS011;55864;49.238;8.092;2023-02-28T05:10:30;7.90;;;3.17;;
68858;SDS011;55864;49.238;8.092;2023-02-28T05:12:31;7.50;;;3.00;;
68858;SDS011;55864;49.238;8.092;2023-02-28T05:14:31;6.67;;;2.93;;
68858;SDS011;55864;49.238;8.092;2023-02-28T05:16:32;7.53;;;2.90;;
68858;SDS011;55864;49.238;8.092;2023-02-28T05:18:34;7.67;;;2.80;;
68858;SDS011;55864;49.238;8.092;2023-02-28T05:20:34;7.13;;;3.10;;
68858;SDS011;55864;49.238;8.092;2023-02-28T05:22:35;8.10;;;3.40;;
68858;SDS011;55864;49.238;8.092;2023-02-28T05:24:35;10.73;;;3.67;;
68858;SDS011;55864;49.238;8.092;2023-02-28T05:26:36;16.23;;;6.90;;
68858;SDS011;55864;49.238;8.092;2023-02-28T05:28:38;11.97;;;4.87;;
68858;SDS011;55864;49.238;8.092;2023-02-28T05:30:39;8.43;;;3.50;;
68858;SDS011;55864;49.238;8.092;2023-02-28T05:32:40;12.13;;;4.30;;
68858;SDS011;55864;49.238;8.092;2023-02-28T05:34:42;10.37;;;4.67;;
68858;SDS011;55864;49.238;8.092;2023-02-28T05:36:42;10.03;;;3.77;;
68858;SDS011;55864;49.238;8.092;2023-02-28T05:38:45;7.20;;;3.40;;
68858;SDS011;55864;49.238;8.092;2023-02-28T05:40:47;12.65;;;2.80;;
68858;SDS011;55864;49.238;8.092;2023-02-28T05:42:47;7.90;;;3.30;;
68858;SDS011;55864;49.238;8.092;2023-02-28T05:44:49;8.07;;;3.27;;
68858;SDS011;55864;49.238;8.092;2023-02-28T05:46:50;7.57;;;3.17;;
68858;SDS011;55864;49.238;8.092;2023-02-28T05:48:50;9.80;;;3.10;;
68858;SDS011;55864;49.238;8.092;2023-02-28T05:50:52;8.63;;;3.47;;
68858;SDS011;55864;49.238;8.092;2023-02-28T05:52:53;8.33;;;3.10;;
68858;SDS011;55864;49.238;8.092;2023-02-28T05:54:53;6.87;;;2.90;;
68858;SDS011;55864;49.238;8.092;2023-02-28T05:56:54;9.87;;;3.10;;
68858;SDS011;55864;49.238;8.092;2023-02-28T05:58:54;7.03;;;3.10;;
68858;SDS011;55864;49.238;8.092;2023-02-28T06:00:55;6.30;;;2.97;;
68858;SDS011;55864;49.238;8.092;2023-02-28T06:02:56;7.03;;;3.27;;
68858;SDS011;55864;49.238;8.092;2023-02-28T06:04:56;7.57;;;3.13;;
68858;SDS011;55864;49.238;8.092;2023-02-28T06:06:58;6.57;;;2.90;;
68858;SDS011;55864;49.238;8.092;2023-02-28T06:08:58;8.43;;;3.97;;
68858;SDS011;55864;49.238;8.092;2023-02-28T06:11:02;7.47;;;3.20;;
68858;SDS011;55864;49.238;8.092;2023-02-28T06:13:03;9.13;;;3.30;;
68858;SDS011;55864;49.238;8.092;2023-02-28T06:15:05;9.63;;;3.07;;
68858;SDS011;55864;49.238;8.092;2023-02-28T06:17:06;7.27;;;3.23;;
68858;SDS011;55864;49.238;8.092;2023-02-28T06:19:06;8.30;;;3.30;;
68858;SDS011;55864;49.238;8.092;2023-02-28T06:21:07;7.20;;;3.27;;
68858;SDS011;55864;49.238;8.092;2023-02-28T06:23:09;10.23;;;3.80;;
68858;SDS011;55864;49.238;8.092;2023-02-28T06:25:09;7.30;;;3.10;;
68858;SDS011;55864;49.238;8.092;2023-02-28T06:27:10;7.80;;;3.53;;
68858;SDS011;55864;49.238;8.092;2023-02-28T06:29:11;6.93;;;3.27;;
68858;SDS011;55864;49.238;8.092;2023-02-28T06:31:12;7.03;;;3.30;;
68858;SDS011;55864;49.238;8.092;2023-02-28T06:33:14;10.13;;;3.40;;
68858;SDS011;55864;49.238;8.092;2023-02-28T06:35:14;12.63;;;3.67;;
68858;SDS011;55864;49.238;8.092;2023-02-28T06:37:15;10.97;;;3.93;;
68858;SDS011;55864;49.238;8.092;2023-02-28T06:39:17;9.03;;;3.87;;
68858;SDS011;55864;49.238;8.092;2023-02-28T06:41:17;9.23;;;3.60;;
68858;SDS011;55864;49.238;8.092;2023-02-28T06:43:18;8.20;;;3.57;;
68858;SDS011;55864;49.238;8.092;2023-02-28T06:45:18;9.00;;;3.47;;
68858;SDS011;55864;49.238;8.092;2023-02-28T06:47:19;7.13;;;3.07;;
68858;SDS011;55864;49.238;8.092;2023-02-28T06:49:19;8.43;;;3.50;;
68858;SDS011;55864;49.238;8.092;2023-02-28T06:51:20;6.97;;;3.37;;
68858;SDS011;55864;49.238;8.092;2023-02-28T06:53:21;7.57;;;3.10;;
68858;SDS011;55864;49.238;8.092;2023-02-28T06:55:22;8.90;;;3.53;;
68858;SDS011;55864;49.238;8.092;2023-02-28T06:57:23;8.27;;;3.20;;
68858;SDS011;55864;49.238;8.092;2023-02-28T06:59:23;7.77;;;3.30;;
68858;SDS011;55864;49.238;8.092;2023-02-28T07:01:24;9.57;;;3.90;;
68858;SDS011;55864;49.238;8.092;2023-02-28T07:03:24;16.03;;;4.00;;
68858;SDS011;55864;49.238;8.092;2023-02-28T07:05:25;14.43;;;5.00;;
68858;SDS011;55864;49.238;8.092;2023-02-28T07:07:26;14.80;;;4.50;;
68858;SDS011;55864;49.238;8.092;2023-02-28T07:09:26;15.93;;;4.63;;
68858;SDS011;55864;49.238;8.092;2023-02-28T07:11:28;14.03;;;4.13;;
68858;SDS011;55864;49.238;8.092;2023-02-28T07:13:29;12.83;;;4.37;;
68858;SDS011;55864;49.238;8.092;2023-02-28T07:15:29;14.40;;;4.40;;
68858;SDS011;55864;49.238;8.092;2023-02-28T07:17:30;10.17;;;4.20;;
68858;SDS011;55864;49.238;8.092;2023-02-28T07:19:30;9.80;;;3.60;;
68858;SDS011;55864;49.238;8.092;2023-02-28T07:21:31;8.50;;;3.60;;
68858;SDS011;55864;49.238;8.092;2023-02-28T07:23:32;10.17;;;3.47;;
68858;SDS011;55864;49.238;8.092;2023-02-28T07:25:32;10.40;;;3.50;;
68858;SDS011;55864;49.238;8.092;2023-02-28T07:27:34;7.80;;;3.13;;
68858;SDS011;55864;49.238;8.092;2023-02-28T07:29:35;11.53;;;3.77;;
68858;SDS011;55864;49.238;8.092;2023-02-28T07:31:35;9.63;;;3.60;;
68858;SDS011;55864;49.238;8.092;2023-02-28T07:33:36;9.10;;;4.00;;
68858;SDS011;55864;49.238;8.092;2023-02-28T07:35:37;9.37;;;4.03;;
68858;SDS011;55864;49.238;8.092;2023-02-28T07:37:37;9.17;;;3.90;;
68858;SDS011;55864;49.238;8.092;2023-02-28T07:39:38;8.80;;;3.67;;
68858;SDS011;55864;49.238;8.092;2023-02-28T07:41:38;8.63;;;3.80;;
68858;SDS011;55864;49.238;8.092;2023-02-28T07:43:40;7.47;;;3.33;;
68858;SDS011;55864;49.238;8.092;2023-02-28T07:45:41;8.83;;;4.00;;
68858;SDS011;55864;49.238;8.092;2023-02-28T07:47:41;9.83;;;3.90;;
68858;SDS011;55864;49.238;8.092;2023-02-28T07:49:42;9.83;;;4.10;;
68858;SDS011;55864;49.238;8.092;2023-02-28T07:51:43;7.97;;;3.57;;
68858;SDS011;55864;49.238;8.092;2023-02-28T07:53:43;8.73;;;3.77;;
68858;SDS011;55864;49.238;8.092;2023-02-28T07:55:44;11.30;;;3.53;;
68858;SDS011;55864;49.238;8.092;2023-02-28T07:57:45;10.67;;;3.83;;
68858;SDS011;55864;49.238;8.092;2023-02-28T07:59:47;8.50;;;3.67;;
68858;SDS011;55864;49.238;8.092;2023-02-28T08:01:47;12.57;;;3.77;;
68858;SDS011;55864;49.238;8.092;2023-02-28T08:03:48;9.93;;;4.53;;
68858;SDS011;55864;49.238;8.092;2023-02-28T08:05:48;11.07;;;4.20;;
68858;SDS011;55864;49.238;8.092;2023-02-28T08:07:49;10.47;;;4.50;;
68858;SDS011;55864;49.238;8.092;2023-02-28T08:09:50;9.17;;;4.00;;
68858;SDS011;55864;49.238;8.092;2023-02-28T08:11:50;9.83;;;4.03;;
68858;SDS011;55864;49.238;8.092;2023-02-28T08:13:51;8.93;;;3.83;;
68858;SDS011;55864;49.238;8.092;2023-02-28T08:15:53;7.57;;;3.70;;
68858;SDS011;55864;49.238;8.092;2023-02-28T08:17:54;10.83;;;4.03;;
68858;SDS011;55864;49.238;8.092;2023-02-28T08:19:54;9.40;;;3.93;;
68858;SDS011;55864;49.238;8.092;2023-02-28T08:21:55;7.83;;;3.43;;
68858;SDS011;55864;49.238;8.092;2023-02-28T08:23:56;8.37;;;3.70;;
68858;SDS011;55864;49.238;8.092;2023-02-28T08:25:56;8.50;;;4.33;;
68858;SDS011;55864;49.238;8.092;2023-02-28T08:27:57;9.80;;;4.00;;
68858;SDS011;55864;49.238;8.092;2023-02-28T08:29:57;8.73;;;4.03;;
68858;SDS011;55864;49.238;8.092;2023-02-28T08:31:59;8.67;;;4.13;;
68858;SDS011;55864;49.238;8.092;2023-02-28T08:34:00;8.13;;;3.97;;
68858;SDS011;55864;49.238;8.092;2023-02-28T08:36:04;9.47;;;3.97;;
68858;SDS011;55864;49.238;8.092;2023-02-28T08:38:06;10.90;;;4.30;;
68858;SDS011;55864;49.238;8.092;2023-02-28T08:40:07;10.23;;;4.70;;
68858;SDS011;55864;49.238;8.092;2023-02-28T08:42:08;12.17;;;4.80;;
68858;SDS011;55864;49.238;8.092;2023-02-28T08:44:09;12.73;;;4.77;;
68858;SDS011;55864;49.238;8.092;2023-02-28T08:46:10;10.93;;;4.60;;
68858;SDS011;55864;49.238;8.092;2023-02-28T08:48:13;10.60;;;4.67;;
68858;SDS011;55864;49.238;8.092;2023-02-28T08:50:13;10.73;;;4.60;;
68858;SDS011;55864;49.238;8.092;2023-02-28T08:52:14;12.10;;;5.10;;
68858;SDS011;55864;49.238;8.092;2023-02-28T08:54:15;10.37;;;4.47;;
68858;SDS011;55864;49.238;8.092;2023-02-28T08:56:15;11.27;;;4.50;;
68858;SDS011;55864;49.238;8.092;2023-02-28T08:58:16;9.00;;;4.10;;
68858;SDS011;55864;49.238;8.092;2023-02-28T09:00:17;11.20;;;4.13;;
68858;SDS011;55864;49.238;8.092;2023-02-28T09:02:18;10.70;;;4.57;;
68858;SDS011;55864;49.238;8.092;2023-02-28T09:04:20;10.27;;;4.13;;
68858;SDS011;55864;49.238;8.092;2023-02-28T09:06:21;11.80;;;5.07;;
68858;SDS011;55864;49.238;8.092;2023-02-28T09:08:24;11.67;;;4.63;;
68858;SDS011;55864;49.238;8.092;2023-02-28T09:10:26;12.50;;;4.60;;
68858;SDS011;55864;49.238;8.092;2023-02-28T09:12:27;10.63;;;4.70;;
68858;SDS011;55864;49.238;8.092;2023-02-28T09:14:31;12.47;;;4.97;;
68858;SDS011;55864;49.238;8.092;2023-02-28T09:16:32;9.00;;;4.30;;
68858;SDS011;55864;49.238;8.092;2023-02-28T09:18:33;12.20;;;4.67;;
68858;SDS011;55864;49.238;8.092;2023-02-28T09:20:38;10.87;;;4.50;;
68858;SDS011;55864;49.238;8.092;2023-02-28T09:22:39;13.17;;;5.63;;
68858;SDS011;55864;49.238;8.092;2023-02-28T09:24:40;14.70;;;5.50;;
68858;SDS011;55864;49.238;8.092;2023-02-28T09:26:40;14.30;;;5.00;;
68858;SDS011;55864;49.238;8.092;2023-02-28T09:28:41;12.00;;;4.43;;
68858;SDS011;55864;49.238;8.092;2023-02-28T09:30:42;9.00;;;4.73;;
68858;SDS011;55864;49.238;8.092;2023-02-28T09:32:44;12.53;;;5.00;;
68858;SDS011;55864;49.238;8.092;2023-02-28T09:34:44;9.03;;;4.43;;
68858;SDS011;55864;49.238;8.092;2023-02-28T09:36:46;11.13;;;4.67;;
68858;SDS011;55864;49.238;8.092;2023-02-28T09:38:47;11.40;;;4.73;;
68858;SDS011;55864;49.238;8.092;2023-02-28T09:40:49;11.23;;;4.53;;
68858;SDS011;55864;49.238;8.092;2023-02-28T09:42:53;10.90;;;5.00;;
68858;SDS011;55864;49.238;8.092;2023-02-28T09:44:57;13.37;;;5.30;;
68858;SDS011;55864;49.238;8.092;2023-02-28T09:49:06;11.77;;;4.97;;
68858;SDS011;55864;49.238;8.092;2023-02-28T09:51:15;14.20;;;5.57;;
68858;SDS011;55864;49.238;8.092;2023-02-28T09:53:30;11.53;;;4.93;;
68858;SDS011;55864;49.238;8.092;2023-02-28T09:55:33;10.87;;;5.00;;
68858;SDS011;55864;49.238;8.092;2023-02-28T09:57:40;11.07;;;5.00;;
68858;SDS011;55864;49.238;8.092;2023-02-28T09:59:45;10.52;;;5.07;;
68858;SDS011;55864;49.238;8.092;2023-02-28T10:01:57;10.73;;;4.90;;
68858;SDS011;55864;49.238;8.092;2023-02-28T10:04:05;10.33;;;5.00;;
68858;SDS011;55864;49.238;8.092;2023-02-28T10:06:28;10.03;;;5.00;;
68858;SDS011;55864;49.238;8.092;2023-02-28T10:08:35;14.07;;;5.63;;
68858;SDS011;55864;49.238;8.092;2023-02-28T10:10:40;12.30;;;5.10;;
68858;SDS011;55864;49.238;8.092;2023-02-28T10:12:44;10.80;;;5.20;;
68858;SDS011;55864;49.238;8.092;2023-02-28T10:16:50;10.33;;;4.90;;
68858;SDS011;55864;49.238;8.092;2023-02-28T10:18:56;11.57;;;5.30;;
68858;SDS011;55864;49.238;8.092;2023-02-28T10:21:00;9.87;;;4.67;;
68858;SDS011;55864;49.238;8.092;2023-02-28T10:23:02;13.90;;;4.93;;
68858;SDS011;55864;49.238;8.092;2023-02-28T10:25:16;11.33;;;5.20;;
68858;SDS011;55864;49.238;8.092;2023-02-28T10:27:19;12.37;;;5.17;;
68858;SDS011;55864;49.238;8.092;2023-02-28T10:29:21;14.55;;;5.13;;
68858;SDS011;55864;49.238;8.092;2023-02-28T10:31:21;40.37;;;7.63;;
68858;SDS011;55864;49.238;8.092;2023-02-28T10:33:23;15.03;;;5.50;;
68858;SDS011;55864;49.238;8.092;2023-02-28T10:35:25;13.93;;;5.40;;
68858;SDS011;55864;49.238;8.092;2023-02-28T10:37:28;12.47;;;5.30;;
68858;SDS011;55864;49.238;8.092;2023-02-28T10:39:54;10.00;;;4.37;;
68858;SDS011;55864;49.238;8.092;2023-02-28T10:45:10;9.60;;;4.82;;
68858;SDS011;55864;49.238;8.092;2023-02-28T10:47:17;11.60;;;4.60;;
68858;SDS011;55864;49.238;8.092;2023-02-28T10:49:28;10.80;;;4.90;;
68858;SDS011;55864;49.238;8.092;2023-02-28T10:51:35;11.87;;;4.90;;
68858;SDS011;55864;49.238;8.092;2023-02-28T10:53:45;11.32;;;5.22;;
68858;SDS011;55864;49.238;8.092;2023-02-28T10:55:57;13.00;;;5.30;;
68858;SDS011;55864;49.238;8.092;2023-02-28T10:58:07;11.57;;;4.83;;
68858;SDS011;55864;49.238;8.092;2023-02-28T11:00:32;12.90;;;5.27;;
68858;SDS011;55864;49.238;8.092;2023-02-28T11:02:35;14.50;;;6.33;;
68858;SDS011;55864;49.238;8.092;2023-02-28T11:04:37;9.30;;;4.80;;
68858;SDS011;55864;49.238;8.092;2023-02-28T11:06:37;12.07;;;5.47;;
68858;SDS011;55864;49.238;8.092;2023-02-28T11:08:43;10.10;;;4.63;;
68858;SDS011;55864;49.238;8.092;2023-02-28T11:10:46;10.03;;;5.00;;
68858;SDS011;55864;49.238;8.092;2023-02-28T11:12:48;12.23;;;5.60;;
68858;SDS011;55864;49.238;8.092;2023-02-28T11:14:50;14.67;;;5.57;;
68858;SDS011;55864;49.238;8.092;2023-02-28T11:16:53;11.63;;;5.50;;
68858;SDS011;55864;49.238;8.092;2023-02-28T11:18:58;10.07;;;4.77;;
68858;SDS011;55864;49.238;8.092;2023-02-28T11:20:59;12.43;;;5.77;;
68858;SDS011;55864;49.238;8.092;2023-02-28T11:23:03;10.87;;;5.10;;
68858;SDS011;55864;49.238;8.092;2023-02-28T11:25:06;12.73;;;5.47;;
68858;SDS011;55864;49.238;8.092;2023-02-28T11:27:25;12.70;;;5.50;;
68858;SDS011;55864;49.238;8.092;2023-02-28T11:29:42;11.90;;;5.23;;
68858;SDS011;55864;49.238;8.092;2023-02-28T11:32:11;12.27;;;5.83;;
68858;SDS011;55864;49.238;8.092;2023-02-28T11:34:22;12.67;;;5.37;;
68858;SDS011;55864;49.238;8.092;2023-02-28T11:36:25;10.70;;;4.90;;
68858;SDS011;55864;49.238;8.092;2023-02-28T11:38:27;13.15;;;5.15;;
68858;SDS011;55864;49.238;8.092;2023-02-28T11:40:30;10.13;;;4.90;;
68858;SDS011;55864;49.238;8.092;2023-02-28T11:42:42;11.80;;;4.67;;
68858;SDS011;55864;49.238;8.092;2023-02-28T11:44:58;11.50;;;5.73;;
68858;SDS011;55864;49.238;8.092;2023-02-28T11:47:11;11.23;;;5.30;;
68858;SDS011;55864;49.238;8.092;2023-02-28T11:49:22;9.30;;;4.67;;
68858;SDS011;55864;49.238;8.092;2023-02-28T11:51:32;11.13;;;5.28;;
68858;SDS011;55864;49.238;8.092;2023-02-28T11:53:39;12.53;;;5.13;;
68858;SDS011;55864;49.238;8.092;2023-02-28T11:55:58;13.43;;;5.63;;
68858;SDS011;55864;49.238;8.092;2023-02-28T11:58:19;10.80;;;5.33;;
68858;SDS011;55864;49.238;8.092;2023-02-28T12:00:37;10.73;;;5.03;;
68858;SDS011;55864;49.238;8.092;2023-02-28T12:02:51;13.97;;;5.87;;
68858;SDS011;55864;49.238;8.092;2023-02-28T12:05:16;12.30;;;5.50;;
68858;SDS011;55864;49.238;8.092;2023-02-28T12:07:31;10.40;;;5.30;;
68858;SDS011;55864;49.238;8.092;2023-02-28T12:09:40;10.53;;;5.50;;
68858;SDS011;55864;49.238;8.092;2023-02-28T12:11:48;12.00;;;5.23;;
68858;SDS011;55864;49.238;8.092;2023-02-28T12:13:55;14.30;;;6.03;;
68858;SDS011;55864;49.238;8.092;2023-02-28T12:16:10;11.43;;;5.30;;
68858;SDS011;55864;49.238;8.092;2023-02-28T12:18:29;13.00;;;5.40;;
68858;SDS011;55864;49.238;8.092;2023-02-28T12:20:44;10.27;;;5.10;;
68858;SDS011;55864;49.238;8.092;2023-02-28T12:22:51;11.50;;;5.60;;
68858;SDS011;55864;49.238;8.092;2023-02-28T12:27:36;10.97;;;4.97;;
68858;SDS011;55864;49.238;8.092;2023-02-28T12:29:40;13.47;;;5.37;;
68858;SDS011;55864;49.238;8.092;2023-02-28T12:31:49;13.80;;;5.70;;
68858;SDS011;55864;49.238;8.092;2023-02-28T12:33:55;11.33;;;4.90;;
68858;SDS011;55864;49.238;8.092;2023-02-28T12:36:00;11.73;;;5.50;;
68858;SDS011;55864;49.238;8.092;2023-02-28T12:38:08;11.87;;;5.47;;
68858;SDS011;55864;49.238;8.092;2023-02-28T12:40:14;11.77;;;5.63;;